Главная страница
METAR-TAF:

METAR-TAF

Аэропорты :

Bedford, Пенсильвания, США

широта: 40-05-10N, долгота: 078-30-49W, высота над уровнем моря: 354 м

Текущие метеонаблюдения

Эта сводка был подготовлена 23 минут назад, в 13:15 UTC
Ветер 5 Узел от юго-юго-восточный
Температура 13°C
Влажность 100%
Давление 999 hPa
Видимость: 16.1 км
Сплошная облачность на высоте 900 фута
небольшой дождь

METAR: KHMZ 261315Z AUTO 16005KT 10SM -RA OVC009 13/13 A2950 RMK AO2 LTG DSNT E T01340128

Время: 09:38 (13:38 UTC)


TAF: отсутствует

Метеонаблюдения и прогнозы для более 4000 аэропортов (сводки METAR и TAF).

Имеющиеся станции представлены на карте желтыми и красными точками.

Чтобы увидеть название станции, наведите на нее мышь.

Затем щелкните, чтобы увидеть метеонаблюдения и метеопрогнозы.

Управление картой: чтобы увеличить масштаб, щелкните зеленые кнопки с черным крестиком; чтобы уменьшить масштаб, щелкните зеленую кнопку с тире; для просмотра соседних карт щелкайте зеленые стрелки.


METAR-TAF: